sensor_id;sensor_type;location;lat;lon;timestamp;temperature;humidity
22418;DHT22;11376;50.932;4.442;2023-01-23T10:16:45;4.50;99.90
22418;DHT22;11376;50.932;4.442;2023-01-23T10:29:44;5.20;99.90
22418;DHT22;11376;50.932;4.442;2023-01-23T10:32:34;5.20;99.90
22418;DHT22;11376;50.932;4.442;2023-01-23T10:35:12;5.10;99.90
22418;DHT22;11376;50.932;4.442;2023-01-23T10:37:51;5.40;99.90
22418;DHT22;11376;50.932;4.442;2023-01-23T10:40:21;5.50;99.90
22418;DHT22;11376;50.932;4.442;2023-01-23T10:43:12;5.60;99.90
22418;DHT22;11376;50.932;4.442;2023-01-23T10:45:38;5.80;99.90
22418;DHT22;11376;50.932;4.442;2023-01-23T10:48:28;5.70;99.90
22418;DHT22;11376;50.932;4.442;2023-01-23T10:51:02;5.70;99.90
22418;DHT22;11376;50.932;4.442;2023-01-23T10:53:28;5.90;99.90
22418;DHT22;11376;50.932;4.442;2023-01-23T10:55:56;6.00;99.90
22418;DHT22;11376;50.932;4.442;2023-01-23T11:00:52;6.30;99.90
22418;DHT22;11376;50.932;4.442;2023-01-23T11:06:03;6.30;99.90
22418;DHT22;11376;50.932;4.442;2023-01-23T11:08:36;6.30;99.90
22418;DHT22;11376;50.932;4.442;2023-01-23T11:13:41;6.40;99.90
22418;DHT22;11376;50.932;4.442;2023-01-23T11:16:13;6.20;99.90
22418;DHT22;11376;50.932;4.442;2023-01-23T11:18:41;6.10;99.90
22418;DHT22;11376;50.932;4.442;2023-01-23T11:21:29;5.90;99.90
22418;DHT22;11376;50.932;4.442;2023-01-23T11:26:44;6.10;99.90
22418;DHT22;11376;50.932;4.442;2023-01-23T11:29:24;6.00;99.90
22418;DHT22;11376;50.932;4.442;2023-01-23T11:31:54;5.90;99.90
22418;DHT22;11376;50.932;4.442;2023-01-23T11:34:26;5.90;99.90
22418;DHT22;11376;50.932;4.442;2023-01-23T11:37:13;6.00;99.90
22418;DHT22;11376;50.932;4.442;2023-01-23T11:39:55;6.00;99.90
22418;DHT22;11376;50.932;4.442;2023-01-23T11:42:25;6.00;99.90
22418;DHT22;11376;50.932;4.442;2023-01-23T11:44:53;6.00;99.90
22418;DHT22;11376;50.932;4.442;2023-01-23T11:52:20;6.10;99.90
22418;DHT22;11376;50.932;4.442;2023-01-23T12:00:49;6.10;99.90
22418;DHT22;11376;50.932;4.442;2023-01-23T12:06:22;6.40;99.90
22418;DHT22;11376;50.932;4.442;2023-01-23T12:09:08;6.40;99.90
22418;DHT22;11376;50.932;4.442;2023-01-23T12:14:34;6.40;99.90
22418;DHT22;11376;50.932;4.442;2023-01-23T12:20:18;6.40;99.90
22418;DHT22;11376;50.932;4.442;2023-01-23T12:25:33;6.30;99.90
22418;DHT22;11376;50.932;4.442;2023-01-23T12:41:58;6.10;99.90
22418;DHT22;11376;50.932;4.442;2023-01-23T12:44:53;6.10;99.90
22418;DHT22;11376;50.932;4.442;2023-01-23T12:47:48;6.10;99.90
22418;DHT22;11376;50.932;4.442;2023-01-23T12:53:13;6.00;99.90
22418;DHT22;11376;50.932;4.442;2023-01-23T12:59:06;5.80;99.90
22418;DHT22;11376;50.932;4.442;2023-01-23T13:04:35;5.80;99.90
22418;DHT22;11376;50.932;4.442;2023-01-23T13:12:51;6.10;99.90
22418;DHT22;11376;50.932;4.442;2023-01-23T13:15:33;6.20;99.90
22418;DHT22;11376;50.932;4.442;2023-01-23T13:18:00;6.30;99.90
22418;DHT22;11376;50.932;4.442;2023-01-23T13:20:35;6.40;99.90
22418;DHT22;11376;50.932;4.442;2023-01-23T13:31:44;6.00;99.90
22418;DHT22;11376;50.932;4.442;2023-01-23T13:36:52;5.90;99.90
22418;DHT22;11376;50.932;4.442;2023-01-23T13:39:28;5.80;99.90
22418;DHT22;11376;50.932;4.442;2023-01-23T13:45:13;5.60;99.90
22418;DHT22;11376;50.932;4.442;2023-01-23T13:50:34;5.40;99.90
22418;DHT22;11376;50.932;4.442;2023-01-23T13:53:26;5.40;99.90
22418;DHT22;11376;50.932;4.442;2023-01-23T13:56:19;5.50;99.90
22418;DHT22;11376;50.932;4.442;2023-01-23T13:59:26;5.50;99.90
22418;DHT22;11376;50.932;4.442;2023-01-23T14:04:59;5.30;99.90
22418;DHT22;11376;50.932;4.442;2023-01-23T14:07:38;5.30;99.90
22418;DHT22;11376;50.932;4.442;2023-01-23T14:10:26;5.30;99.90
22418;DHT22;11376;50.932;4.442;2023-01-23T14:13:04;5.40;99.90
22418;DHT22;11376;50.932;4.442;2023-01-23T14:15:30;5.30;99.90
22418;DHT22;11376;50.932;4.442;2023-01-23T14:20:49;5.30;99.90
22418;DHT22;11376;50.932;4.442;2023-01-23T14:23:32;5.30;99.90
22418;DHT22;11376;50.932;4.442;2023-01-23T14:25:59;5.30;99.90
22418;DHT22;11376;50.932;4.442;2023-01-23T14:28:25;5.30;99.90
22418;DHT22;11376;50.932;4.442;2023-01-23T14:30:57;5.50;99.90
22418;DHT22;11376;50.932;4.442;2023-01-23T14:33:23;5.40;99.90
22418;DHT22;11376;50.932;4.442;2023-01-23T14:35:50;5.40;99.90
22418;DHT22;11376;50.932;4.442;2023-01-23T14:38:36;5.40;99.90
22418;DHT22;11376;50.932;4.442;2023-01-23T14:41:04;5.50;99.90
22418;DHT22;11376;50.932;4.442;2023-01-23T14:43:30;5.40;99.90
22418;DHT22;11376;50.932;4.442;2023-01-23T14:46:01;5.30;99.90
22418;DHT22;11376;50.932;4.442;2023-01-23T14:48:34;5.20;99.90
22418;DHT22;11376;50.932;4.442;2023-01-23T14:51:22;5.20;99.90
22418;DHT22;11376;50.932;4.442;2023-01-23T14:53:56;5.30;99.90
22418;DHT22;11376;50.932;4.442;2023-01-23T14:56:26;5.50;99.90
22418;DHT22;11376;50.932;4.442;2023-01-23T14:58:54;5.50;99.90
22418;DHT22;11376;50.932;4.442;2023-01-23T15:01:21;5.50;99.90
22418;DHT22;11376;50.932;4.442;2023-01-23T15:03:59;5.40;99.90
22418;DHT22;11376;50.932;4.442;2023-01-23T15:06:26;5.60;99.90
22418;DHT22;11376;50.932;4.442;2023-01-23T15:08:53;5.60;99.90
22418;DHT22;11376;50.932;4.442;2023-01-23T15:11:26;5.50;99.90
22418;DHT22;11376;50.932;4.442;2023-01-23T15:13:55;5.40;99.90
22418;DHT22;11376;50.932;4.442;2023-01-23T15:16:29;5.30;99.90
22418;DHT22;11376;50.932;4.442;2023-01-23T15:19:21;5.50;99.90
22418;DHT22;11376;50.932;4.442;2023-01-23T15:21:48;5.50;99.90
22418;DHT22;11376;50.932;4.442;2023-01-23T15:26:44;5.40;99.90
22418;DHT22;11376;50.932;4.442;2023-01-23T15:29:19;5.40;99.90
22418;DHT22;11376;50.932;4.442;2023-01-23T15:31:49;5.40;99.90
22418;DHT22;11376;50.932;4.442;2023-01-23T15:42:00;5.30;99.90
22418;DHT22;11376;50.932;4.442;2023-01-23T15:44:28;5.30;99.90
22418;DHT22;11376;50.932;4.442;2023-01-23T15:46:55;5.20;99.90
22418;DHT22;11376;50.932;4.442;2023-01-23T15:49:21;5.10;99.90
22418;DHT22;11376;50.932;4.442;2023-01-23T15:51:47;5.00;99.90
22418;DHT22;11376;50.932;4.442;2023-01-23T15:54:23;4.90;99.90
22418;DHT22;11376;50.932;4.442;2023-01-23T15:56:50;4.90;99.90
22418;DHT22;11376;50.932;4.442;2023-01-23T15:59:17;4.90;99.90
22418;DHT22;11376;50.932;4.442;2023-01-23T16:01:43;4.90;99.90
22418;DHT22;11376;50.932;4.442;2023-01-23T16:04:09;4.90;99.90
22418;DHT22;11376;50.932;4.442;2023-01-23T16:06:35;4.80;99.90
22418;DHT22;11376;50.932;4.442;2023-01-23T16:09:02;4.80;99.90
22418;DHT22;11376;50.932;4.442;2023-01-23T16:11:31;4.80;99.90
22418;DHT22;11376;50.932;4.442;2023-01-23T16:13:57;4.90;99.90
22418;DHT22;11376;50.932;4.442;2023-01-23T16:16:23;4.90;99.90
22418;DHT22;11376;50.932;4.442;2023-01-23T16:18:48;4.90;99.90
22418;DHT22;11376;50.932;4.442;2023-01-23T16:21:15;4.80;99.90
22418;DHT22;11376;50.932;4.442;2023-01-23T16:23:42;4.90;99.90
22418;DHT22;11376;50.932;4.442;2023-01-23T16:26:28;4.80;99.90
22418;DHT22;11376;50.932;4.442;2023-01-23T16:28:55;4.80;99.90
22418;DHT22;11376;50.932;4.442;2023-01-23T16:31:21;4.70;99.90
22418;DHT22;11376;50.932;4.442;2023-01-23T16:33:47;4.70;99.90
22418;DHT22;11376;50.932;4.442;2023-01-23T16:36:17;4.70;99.90
22418;DHT22;11376;50.932;4.442;2023-01-23T16:38:52;4.80;99.90
22418;DHT22;11376;50.932;4.442;2023-01-23T16:41:18;4.70;99.90
22418;DHT22;11376;50.932;4.442;2023-01-23T16:43:44;4.70;99.90
22418;DHT22;11376;50.932;4.442;2023-01-23T16:46:10;4.70;99.90
22418;DHT22;11376;50.932;4.442;2023-01-23T16:48:36;4.70;99.90
22418;DHT22;11376;50.932;4.442;2023-01-23T16:51:18;4.60;99.90
22418;DHT22;11376;50.932;4.442;2023-01-23T16:53:52;4.70;99.90
22418;DHT22;11376;50.932;4.442;2023-01-23T16:56:22;4.60;99.90
22418;DHT22;11376;50.932;4.442;2023-01-23T16:58:49;4.50;99.90
22418;DHT22;11376;50.932;4.442;2023-01-23T17:01:17;4.60;99.90
22418;DHT22;11376;50.932;4.442;2023-01-23T17:03:49;4.60;99.90
22418;DHT22;11376;50.932;4.442;2023-01-23T17:06:17;4.60;99.90
22418;DHT22;11376;50.932;4.442;2023-01-23T17:08:42;4.50;99.90
22418;DHT22;11376;50.932;4.442;2023-01-23T17:11:16;4.50;99.90
22418;DHT22;11376;50.932;4.442;2023-01-23T17:13:43;4.40;99.90
22418;DHT22;11376;50.932;4.442;2023-01-23T17:16:08;4.40;99.90
22418;DHT22;11376;50.932;4.442;2023-01-23T17:18:35;4.40;99.90
22418;DHT22;11376;50.932;4.442;2023-01-23T17:21:03;4.40;99.90
22418;DHT22;11376;50.932;4.442;2023-01-23T17:23:30;4.50;99.90
22418;DHT22;11376;50.932;4.442;2023-01-23T17:25:56;4.50;99.90
22418;DHT22;11376;50.932;4.442;2023-01-23T17:28:22;4.30;99.90
22418;DHT22;11376;50.932;4.442;2023-01-23T17:30:50;4.30;99.90
22418;DHT22;11376;50.932;4.442;2023-01-23T17:33:24;4.20;99.90
22418;DHT22;11376;50.932;4.442;2023-01-23T17:35:51;4.20;99.90
22418;DHT22;11376;50.932;4.442;2023-01-23T17:38:18;4.30;99.90
22418;DHT22;11376;50.932;4.442;2023-01-23T17:40:44;4.30;99.90
22418;DHT22;11376;50.932;4.442;2023-01-23T17:43:11;4.40;99.90
22418;DHT22;11376;50.932;4.442;2023-01-23T17:45:38;4.30;99.90
22418;DHT22;11376;50.932;4.442;2023-01-23T17:48:04;4.30;99.90
22418;DHT22;11376;50.932;4.442;2023-01-23T17:50:30;4.30;99.90
22418;DHT22;11376;50.932;4.442;2023-01-23T17:52:56;4.30;99.90
22418;DHT22;11376;50.932;4.442;2023-01-23T17:55:24;4.40;99.90
22418;DHT22;11376;50.932;4.442;2023-01-23T17:57:52;4.40;99.90
22418;DHT22;11376;50.932;4.442;2023-01-23T18:00:19;4.50;99.90
22418;DHT22;11376;50.932;4.442;2023-01-23T18:02:54;4.50;99.90
22418;DHT22;11376;50.932;4.442;2023-01-23T18:05:20;4.50;99.90
22418;DHT22;11376;50.932;4.442;2023-01-23T18:07:46;4.30;99.90
22418;DHT22;11376;50.932;4.442;2023-01-23T18:10:11;4.40;99.90
22418;DHT22;11376;50.932;4.442;2023-01-23T18:20:28;4.30;99.90
22418;DHT22;11376;50.932;4.442;2023-01-23T18:22:55;4.30;99.90
22418;DHT22;11376;50.932;4.442;2023-01-23T18:25:22;4.20;99.90
22418;DHT22;11376;50.932;4.442;2023-01-23T18:27:53;4.30;99.90
22418;DHT22;11376;50.932;4.442;2023-01-23T18:30:38;4.40;99.90
22418;DHT22;11376;50.932;4.442;2023-01-23T18:36:25;4.30;99.90
22418;DHT22;11376;50.932;4.442;2023-01-23T18:39:06;4.40;99.90
22418;DHT22;11376;50.932;4.442;2023-01-23T18:41:42;4.40;99.90
22418;DHT22;11376;50.932;4.442;2023-01-23T18:44:13;4.40;99.90
22418;DHT22;11376;50.932;4.442;2023-01-23T18:46:40;4.30;99.90
22418;DHT22;11376;50.932;4.442;2023-01-23T18:49:08;4.30;99.90
22418;DHT22;11376;50.932;4.442;2023-01-23T18:51:38;4.40;99.90
22418;DHT22;11376;50.932;4.442;2023-01-23T18:59:44;4.30;99.90
22418;DHT22;11376;50.932;4.442;2023-01-23T19:07:26;4.30;99.90
22418;DHT22;11376;50.932;4.442;2023-01-23T19:09:52;4.40;99.90
22418;DHT22;11376;50.932;4.442;2023-01-23T19:12:26;4.40;99.90
22418;DHT22;11376;50.932;4.442;2023-01-23T19:15:27;4.40;99.90
22418;DHT22;11376;50.932;4.442;2023-01-23T19:18:29;4.50;99.90
22418;DHT22;11376;50.932;4.442;2023-01-23T19:21:11;4.50;99.90
22418;DHT22;11376;50.932;4.442;2023-01-23T19:26:14;4.40;99.90
22418;DHT22;11376;50.932;4.442;2023-01-23T19:28:40;4.50;99.90
22418;DHT22;11376;50.932;4.442;2023-01-23T19:31:14;4.40;99.90
22418;DHT22;11376;50.932;4.442;2023-01-23T19:33:43;4.50;99.90
22418;DHT22;11376;50.932;4.442;2023-01-23T19:36:09;4.50;99.90
22418;DHT22;11376;50.932;4.442;2023-01-23T19:38:37;4.50;99.90
22418;DHT22;11376;50.932;4.442;2023-01-23T19:41:03;4.50;99.90
22418;DHT22;11376;50.932;4.442;2023-01-23T19:43:29;4.40;99.90
22418;DHT22;11376;50.932;4.442;2023-01-23T19:45:55;4.20;99.90
22418;DHT22;11376;50.932;4.442;2023-01-23T19:48:20;4.30;99.90
22418;DHT22;11376;50.932;4.442;2023-01-23T19:50:46;4.30;99.90
22418;DHT22;11376;50.932;4.442;2023-01-23T19:53:12;4.30;99.90
22418;DHT22;11376;50.932;4.442;2023-01-23T19:55:39;4.40;99.90
22418;DHT22;11376;50.932;4.442;2023-01-23T19:58:05;4.40;99.90
22418;DHT22;11376;50.932;4.442;2023-01-23T20:00:32;4.50;99.90
22418;DHT22;11376;50.932;4.442;2023-01-23T20:02:58;4.50;99.90
22418;DHT22;11376;50.932;4.442;2023-01-23T20:05:24;4.40;99.90
22418;DHT22;11376;50.932;4.442;2023-01-23T20:07:50;4.40;99.90
22418;DHT22;11376;50.932;4.442;2023-01-23T20:10:18;4.40;99.90
22418;DHT22;11376;50.932;4.442;2023-01-23T20:12:46;4.50;99.90
22418;DHT22;11376;50.932;4.442;2023-01-23T20:15:17;4.50;99.90
22418;DHT22;11376;50.932;4.442;2023-01-23T20:17:43;4.50;99.90
22418;DHT22;11376;50.932;4.442;2023-01-23T20:20:10;4.40;99.90
22418;DHT22;11376;50.932;4.442;2023-01-23T20:22:40;4.30;99.90
22418;DHT22;11376;50.932;4.442;2023-01-23T20:25:09;4.20;99.90
22418;DHT22;11376;50.932;4.442;2023-01-23T20:27:35;4.30;99.90
22418;DHT22;11376;50.932;4.442;2023-01-23T20:30:02;4.40;99.90
22418;DHT22;11376;50.932;4.442;2023-01-23T20:32:32;4.40;99.90
22418;DHT22;11376;50.932;4.442;2023-01-23T20:34:58;4.50;99.90
22418;DHT22;11376;50.932;4.442;2023-01-23T20:37:24;4.60;99.90
22418;DHT22;11376;50.932;4.442;2023-01-23T20:39:49;4.50;99.90
22418;DHT22;11376;50.932;4.442;2023-01-23T20:42:15;4.50;99.90
22418;DHT22;11376;50.932;4.442;2023-01-23T20:44:41;4.60;99.90
22418;DHT22;11376;50.932;4.442;2023-01-23T20:47:06;4.50;99.90
22418;DHT22;11376;50.932;4.442;2023-01-23T20:49:32;4.50;99.90
22418;DHT22;11376;50.932;4.442;2023-01-23T20:51:58;4.60;99.90
22418;DHT22;11376;50.932;4.442;2023-01-23T20:54:44;4.40;99.90
22418;DHT22;11376;50.932;4.442;2023-01-23T20:57:14;4.40;99.90
22418;DHT22;11376;50.932;4.442;2023-01-23T20:59:40;4.40;99.90
22418;DHT22;11376;50.932;4.442;2023-01-23T21:02:07;4.40;99.90
22418;DHT22;11376;50.932;4.442;2023-01-23T21:04:50;4.40;99.90
22418;DHT22;11376;50.932;4.442;2023-01-23T21:07:19;4.40;99.90
22418;DHT22;11376;50.932;4.442;2023-01-23T21:09:45;4.30;99.90
22418;DHT22;11376;50.932;4.442;2023-01-23T21:12:11;4.30;99.90
22418;DHT22;11376;50.932;4.442;2023-01-23T21:14:36;4.30;99.90
22418;DHT22;11376;50.932;4.442;2023-01-23T21:17:03;4.30;99.90
22418;DHT22;11376;50.932;4.442;2023-01-23T21:19:35;4.40;99.90
22418;DHT22;11376;50.932;4.442;2023-01-23T21:22:01;4.40;99.90
22418;DHT22;11376;50.932;4.442;2023-01-23T21:24:28;4.40;99.90
22418;DHT22;11376;50.932;4.442;2023-01-23T21:27:13;4.30;99.90
22418;DHT22;11376;50.932;4.442;2023-01-23T21:29:39;4.30;99.90
22418;DHT22;11376;50.932;4.442;2023-01-23T21:32:05;4.30;99.90
22418;DHT22;11376;50.932;4.442;2023-01-23T21:34:30;4.50;99.90
22418;DHT22;11376;50.932;4.442;2023-01-23T21:36:56;4.50;99.90
22418;DHT22;11376;50.932;4.442;2023-01-23T21:39:21;4.40;99.90
22418;DHT22;11376;50.932;4.442;2023-01-23T21:42:12;4.40;99.90
22418;DHT22;11376;50.932;4.442;2023-01-23T21:44:37;4.40;99.90
22418;DHT22;11376;50.932;4.442;2023-01-23T21:47:03;4.40;99.90
22418;DHT22;11376;50.932;4.442;2023-01-23T21:49:28;4.40;99.90
22418;DHT22;11376;50.932;4.442;2023-01-23T21:51:55;4.30;99.90
22418;DHT22;11376;50.932;4.442;2023-01-23T21:54:21;4.40;99.90
22418;DHT22;11376;50.932;4.442;2023-01-23T21:56:46;4.40;99.90
22418;DHT22;11376;50.932;4.442;2023-01-23T21:59:12;4.40;99.90
22418;DHT22;11376;50.932;4.442;2023-01-23T22:01:37;4.50;99.90
22418;DHT22;11376;50.932;4.442;2023-01-23T22:04:15;4.60;99.90
22418;DHT22;11376;50.932;4.442;2023-01-23T22:06:51;4.40;99.90
22418;DHT22;11376;50.932;4.442;2023-01-23T22:09:17;4.50;99.90
22418;DHT22;11376;50.932;4.442;2023-01-23T22:11:44;4.30;99.90
22418;DHT22;11376;50.932;4.442;2023-01-23T22:14:10;4.30;99.90
22418;DHT22;11376;50.932;4.442;2023-01-23T22:16:35;4.20;99.90
22418;DHT22;11376;50.932;4.442;2023-01-23T22:19:01;4.10;99.90
22418;DHT22;11376;50.932;4.442;2023-01-23T22:21:27;4.10;99.90
22418;DHT22;11376;50.932;4.442;2023-01-23T22:23:52;4.20;99.90
22418;DHT22;11376;50.932;4.442;2023-01-23T22:26:18;4.30;99.90
22418;DHT22;11376;50.932;4.442;2023-01-23T22:28:50;4.40;99.90
22418;DHT22;11376;50.932;4.442;2023-01-23T22:31:16;4.40;99.90
22418;DHT22;11376;50.932;4.442;2023-01-23T22:33:44;4.40;99.90
22418;DHT22;11376;50.932;4.442;2023-01-23T22:36:14;4.40;99.90
22418;DHT22;11376;50.932;4.442;2023-01-23T22:38:40;4.40;99.90
22418;DHT22;11376;50.932;4.442;2023-01-23T22:41:06;4.40;99.90
22418;DHT22;11376;50.932;4.442;2023-01-23T22:43:33;4.30;99.90
22418;DHT22;11376;50.932;4.442;2023-01-23T22:46:12;4.30;99.90
22418;DHT22;11376;50.932;4.442;2023-01-23T22:48:38;4.30;99.90
22418;DHT22;11376;50.932;4.442;2023-01-23T22:51:07;4.20;99.90
22418;DHT22;11376;50.932;4.442;2023-01-23T22:53:36;4.20;99.90
22418;DHT22;11376;50.932;4.442;2023-01-23T22:56:04;4.30;99.90
22418;DHT22;11376;50.932;4.442;2023-01-23T22:58:31;4.20;99.90
22418;DHT22;11376;50.932;4.442;2023-01-23T23:00:56;4.20;99.90
22418;DHT22;11376;50.932;4.442;2023-01-23T23:03:22;4.20;99.90
22418;DHT22;11376;50.932;4.442;2023-01-23T23:05:56;4.10;99.90
22418;DHT22;11376;50.932;4.442;2023-01-23T23:08:22;4.10;99.90
22418;DHT22;11376;50.932;4.442;2023-01-23T23:10:57;4.10;99.90
22418;DHT22;11376;50.932;4.442;2023-01-23T23:13:22;4.20;99.90
22418;DHT22;11376;50.932;4.442;2023-01-23T23:15:48;4.10;99.90
22418;DHT22;11376;50.932;4.442;2023-01-23T23:18:13;4.20;99.90
22418;DHT22;11376;50.932;4.442;2023-01-23T23:20:39;4.10;99.90
22418;DHT22;11376;50.932;4.442;2023-01-23T23:23:04;4.20;99.90
22418;DHT22;11376;50.932;4.442;2023-01-23T23:25:30;4.20;99.90
22418;DHT22;11376;50.932;4.442;2023-01-23T23:27:55;4.20;99.90
22418;DHT22;11376;50.932;4.442;2023-01-23T23:30:21;4.20;99.90
22418;DHT22;11376;50.932;4.442;2023-01-23T23:32:47;4.10;99.90
22418;DHT22;11376;50.932;4.442;2023-01-23T23:35:12;4.20;99.90
22418;DHT22;11376;50.932;4.442;2023-01-23T23:37:38;4.30;99.90
22418;DHT22;11376;50.932;4.442;2023-01-23T23:40:04;4.30;99.90
22418;DHT22;11376;50.932;4.442;2023-01-23T23:42:30;4.20;99.90
22418;DHT22;11376;50.932;4.442;2023-01-23T23:44:55;4.20;99.90
22418;DHT22;11376;50.932;4.442;2023-01-23T23:47:21;4.20;99.90
22418;DHT22;11376;50.932;4.442;2023-01-23T23:49:46;4.10;99.90
22418;DHT22;11376;50.932;4.442;2023-01-23T23:52:12;4.00;99.90
22418;DHT22;11376;50.932;4.442;2023-01-23T23:54:37;4.10;99.90
22418;DHT22;11376;50.932;4.442;2023-01-23T23:57:03;4.00;99.90
22418;DHT22;11376;50.932;4.442;2023-01-23T23:59:29;4.00;99.90
